Date,TemperatureHighF,TemperatureAvgF,TemperatureLowF,DewpointHighF,DewpointAvgF,DewpointLowF,HumidityHigh,HumidityAvg,HumidityLow,PressureMaxIn,PressureMinIn,WindSpeedMaxMPH,WindSpeedAvgMPH,GustSpeedMaxMPH,PrecipitationSumIn
2013-1-1,18.5,8.7,-6.7,14.7,5.4,-10.3,92,86,79,30.39,30.14,9,2,10,0.00
2013-1-2,28.8,19.6,8.1,26.6,17.2,5.5,100,90,84,30.21,30.03,7,2,7,0.00
2013-1-3,22.4,11.9,4.9,19.3,8.4,1.4,95,86,82,30.40,30.21,8,2,8,0.00
2013-1-4,27.1,19.6,13.4,19.7,14.4,10.0,88,80,72,30.26,30.16,11,3,11,0.00
2013-1-5,25.1,17.2,10.7,19.7,13.3,7.3,92,84,79,30.17,29.96,9,3,10,0.00
2013-1-6,22.6,14.9,6.8,18.8,11.0,3.2,92,84,78,30.34,30.10,18,4,19,0.00
2013-1-7,33.9,26.9,20.2,28.1,22.6,17.0,91,84,78,30.09,29.98,22,4,22,0.01
2013-1-8,32.5,23.8,13.9,29.3,21.2,11.2,94,90,85,30.08,29.80,15,4,15,0.00
2013-1-9,30.1,28.7,27.3,26.7,25.8,24.8,92,89,86,30.16,30.08,6,3,6,0.00
2013-2-1,18.2,17.6,16.6,14.2,13.7,12.9,86,84,82,30.13,30.10,4,0,4,0.00
2013-2-2,28.5,14.7,4.0,26.4,11.0,0.7,99,85,75,30.27,30.02,10,2,11,0.00
2013-2-3,24.5,17.5,9.5,19.6,13.3,6.2,92,83,72,30.19,29.88,15,4,16,0.00
2013-2-4,22.2,15.2,7.4,18.7,11.3,4.6,92,84,72,30.12,29.86,13,3,17,0.00
2013-2-5,35.6,26.3,14.7,31.3,23.1,12.3,91,88,82,30.14,29.77,12,2,12,0.00
2013-2-6,42.4,30.4,13.2,35.2,26.5,10.8,96,85,75,30.14,29.89,21,6,22,0.01
2013-2-7,34.7,31.5,26.7,32.6,29.5,25.1,94,92,90,30.00,29.96,8,1,8,0.00
2013-2-8,24.3,24.1,23.8,22.6,22.2,21.8,93,92,92,30.24,30.22,18,12,20,0.00
2013-2-9,36.7,28.5,23.5,33.2,26.4,22.0,95,92,83,30.23,29.84,23,12,23,0.00
2013-2-10,35.5,31.7,26.0,34.7,30.7,24.8,97,96,93,29.85,29.24,21,6,21,0.16
2013-2-11,26.3,22.2,18.5,25.1,19.3,14.7,100,88,82,30.15,29.51,11,3,12,0.00
2013-2-12,36.5,26.5,18.4,30.0,22.3,15.6,90,84,71,30.15,29.89,10,3,10,0.02
2013-2-13,36.0,28.2,21.7,32.3,25.3,19.2,91,89,86,29.89,29.66,9,2,10,0.00
2013-2-14,34.6,31.7,30.3,31.2,29.2,28.3,92,91,87,29.77,29.68,6,2,7,0.00
2013-2-16,21.5,20.6,19.4,19.0,18.2,17.2,91,90,89,30.15,30.12,7,4,7,0.00
2013-2-17,37.2,28.6,17.6,31.6,24.5,15.4,92,85,74,30.12,29.60,25,11,25,0.00
2013-2-18,34.9,27.3,4.2,31.7,23.7,-0.1,91,86,77,29.99,29.56,12,3,12,0.00
2013-2-19,10.2,2.5,-3.5,3.6,-2.7,-8.4,84,78,70,30.52,29.99,5,3,8,0.00
2013-2-20,16.4,5.6,-5.0,9.1,0.0,-9.3,85,78,65,30.56,30.44,10,4,11,0.00
2013-2-21,23.8,15.7,8.2,16.1,10.7,4.9,91,81,64,30.46,30.04,16,9,20,0.00
2013-2-22,24.3,18.2,13.6,21.7,15.9,11.2,92,91,88,30.04,29.94,10,3,12,0.02
2013-2-23,23.9,13.4,5.3,19.5,10.6,2.5,94,88,82,30.01,29.94,4,1,5,0.00
2013-2-24,23.2,14.4,1.3,21.2,12.1,-1.7,99,90,87,30.17,30.01,6,1,7,0.00
2013-2-25,26.1,22.9,21.4,23.8,21.1,19.6,94,93,90,30.17,30.05,13,2,13,0.01
2013-2-26,28.0,23.6,19.3,25.0,21.7,17.6,94,92,87,30.08,29.91,11,3,13,0.00
2013-2-27,31.8,22.3,19.5,26.4,19.3,16.8,92,88,78,30.11,29.92,12,3,12,0.00
2013-2-28,20.0,18.2,16.4,18.1,16.1,14.2,92,91,91,30.15,30.10,6,1,6,0.00
2013-3-1,19.7,15.9,10.9,15.9,12.6,8.3,89,87,84,30.42,30.40,5,0,5,0.00
2013-3-2,27.4,17.2,5.3,22.4,13.2,2.6,92,85,63,30.41,30.18,9,2,9,0.00
2013-3-3,31.2,25.6,19.4,26.6,21.9,17.2,93,86,77,30.19,29.90,19,9,19,0.00
2013-3-4,28.5,26.4,24.1,27.5,25.0,22.1,100,94,92,30.03,29.82,20,7,20,0.00
2013-3-5,28.8,24.5,18.2,27.1,21.8,16.0,100,90,84,30.38,29.98,13,3,13,0.05
2013-3-6,25.6,21.4,18.6,20.3,18.0,16.3,99,87,78,30.49,30.37,8,2,9,0.01
2013-3-7,28.3,20.2,11.2,25.4,17.5,9.1,93,89,82,30.41,30.27,18,7,18,0.00
2013-3-8,34.6,27.3,17.2,31.7,25.1,15.2,95,91,86,30.33,30.05,19,8,20,0.20
2013-3-9,37.1,34.5,31.9,36.3,33.6,31.1,97,97,95,30.05,29.67,16,6,17,0.61
2013-3-10,32.0,27.2,22.6,31.2,25.8,21.1,97,95,91,29.96,29.76,12,4,14,0.00
2013-3-11,28.1,23.8,19.9,24.6,21.2,18.2,94,90,81,29.96,29.85,10,2,10,0.10
2013-3-12,27.8,24.6,19.5,25.2,20.7,15.5,92,85,79,30.31,29.94,10,3,12,0.02
2013-3-13,29.0,21.3,13.8,21.6,17.0,11.2,94,84,66,30.48,30.29,12,3,12,0.02
2013-3-14,27.5,26.0,24.9,22.8,21.9,21.2,86,85,82,30.29,30.17,14,10,16,0.00
2013-3-15,33.3,32.8,31.8,32.0,31.7,30.8,96,95,95,29.89,29.84,5,0,5,0.00
2013-3-16,31.8,24.3,16.0,30.8,21.7,11.5,96,90,82,30.29,29.88,7,2,8,0.00
2013-3-17,30.8,21.6,11.2,27.8,17.1,6.9,90,83,74,30.30,29.82,25,9,25,0.00
2013-3-18,32.1,21.0,12.1,31.1,16.4,6.4,96,82,71,30.02,29.68,22,7,22,0.00
2013-3-19,28.3,16.7,8.2,21.3,10.1,3.5,85,75,58,30.37,30.01,8,2,9,0.00
2013-3-20,23.4,15.1,7.8,13.9,7.7,3.2,89,73,60,30.40,30.23,11,2,12,0.00
2013-3-21,26.4,16.7,6.3,18.6,10.3,2.8,92,76,60,30.23,30.08,11,2,11,0.00
2013-3-22,30.6,23.2,13.6,22.5,17.5,11.2,91,79,64,30.16,30.09,9,2,10,0.00
2013-3-23,31.3,26.2,23.1,23.4,20.7,18.2,92,80,64,30.22,30.11,9,1,9,0.00
2013-3-24,30.0,25.8,21.1,26.7,22.7,17.7,93,88,79,30.17,30.03,9,3,9,0.01
2013-3-25,34.2,26.8,22.1,27.1,22.3,17.5,92,83,68,30.34,30.09,10,3,11,0.02
2013-3-26,38.0,26.7,16.6,25.3,19.8,13.7,92,76,51,30.38,30.31,8,1,10,0.00
2013-3-27,40.1,31.9,23.3,31.9,26.6,20.9,92,81,64,30.36,30.30,12,4,13,0.00
2013-3-28,47.9,36.8,27.8,39.9,32.0,25.1,93,83,65,30.34,30.25,12,5,14,0.00
2013-3-29,55.0,43.4,32.2,44.8,37.5,30.1,93,81,62,30.27,30.04,19,8,19,0.00
2013-3-30,57.7,47.7,35.1,48.2,41.7,33.3,94,80,60,30.04,29.87,13,4,14,0.00
2013-3-31,39.9,34.8,31.9,33.5,29.8,21.1,99,83,56,30.05,29.88,12,2,13,0.00